Time;durP1;ratioP1;P1;durP2;ratioP2;P2;SDS_P1;SDS_P2;PMS_P1;PMS_P2;Temp;Humidity;BMP_temperature;BMP_pressure;BME280_temperature;BME280_humidity;BME280_pressure;Samples;Min_cycle;Max_cycle;Signal;HPM_P1;HPM_P2
2023/06/30 00:01:01;;;;;;;15.02;10.05;;;;;;;20.08;100.00;99959.28;4957359;28;20043;-71
2023/06/30 00:03:28;;;;;;;14.95;10.32;;;;;;;20.06;100.00;99947.81;4942735;29;20054;-72
2023/06/30 00:05:57;;;;;;;14.25;9.60;;;;;;;20.04;100.00;99955.16;4953519;28;20051;-75
2023/06/30 00:08:24;;;;;;;16.38;10.23;;;;;;;19.98;100.00;99943.16;4937791;29;20134;-72
2023/06/30 00:10:57;;;;;;;13.68;9.95;;;;;;;19.85;100.00;99935.38;4940049;29;20082;-74
2023/06/30 00:13:24;;;;;;;14.57;9.65;;;;;;;19.84;100.00;99947.09;4953043;28;20518;-72
2023/06/30 00:15:51;;;;;;;14.20;9.77;;;;;;;19.79;100.00;99948.53;4938619;29;20114;-72
2023/06/30 00:18:20;;;;;;;14.52;9.70;;;;;;;19.75;100.00;99953.34;4953472;28;20642;-73
2023/06/30 00:20:50;;;;;;;14.48;9.68;;;;;;;19.72;100.00;99966.19;4960195;28;20047;-72
2023/06/30 00:23:17;;;;;;;13.25;9.45;;;;;;;19.65;100.00;99954.34;4952473;29;20495;-73
2023/06/30 00:25:44;;;;;;;15.32;9.50;;;;;;;19.58;100.00;99938.78;4957303;28;20077;-72
2023/06/30 00:28:11;;;;;;;13.65;9.95;;;;;;;19.69;100.00;99942.31;4938464;28;20647;-72
2023/06/30 00:30:38;;;;;;;12.60;8.82;;;;;;;19.82;100.00;99942.91;4947456;28;20114;-72
2023/06/30 00:33:09;;;;;;;12.75;9.25;;;;;;;19.84;100.00;99940.88;4940735;28;20047;-72
2023/06/30 00:35:39;;;;;;;12.27;8.63;;;;;;;19.91;100.00;99942.03;4938730;29;20047;-72
2023/06/30 00:38:06;;;;;;;14.13;9.30;;;;;;;19.95;100.00;99941.59;4936316;29;20079;-73
2023/06/30 00:40:34;;;;;;;10.80;8.23;;;;;;;20.05;100.00;99936.22;4957987;28;20059;-73
2023/06/30 00:43:01;;;;;;;13.30;8.27;;;;;;;19.99;100.00;99927.88;4950518;29;20067;-72
2023/06/30 00:45:29;;;;;;;12.60;8.80;;;;;;;20.07;100.00;99941.44;4964146;28;20055;-72
2023/06/30 00:47:55;;;;;;;10.77;8.27;;;;;;;20.04;100.00;99939.88;4939552;29;20074;-73
2023/06/30 00:50:22;;;;;;;13.05;8.27;;;;;;;19.94;100.00;99920.25;4953755;28;20498;-73
2023/06/30 00:52:50;;;;;;;12.00;8.45;;;;;;;19.92;100.00;99916.84;4937455;29;20098;-73
2023/06/30 00:55:18;;;;;;;13.35;8.75;;;;;;;19.91;100.00;99931.28;4938893;28;20055;-73
2023/06/30 00:57:45;;;;;;;12.40;8.45;;;;;;;19.73;100.00;99909.66;4937826;29;20473;-72
2023/06/30 01:00:13;;;;;;;12.68;8.70;;;;;;;19.79;100.00;99922.53;4937974;28;20047;-71
2023/06/30 01:02:54;;;;;;;12.02;8.93;;;;;;;19.83;100.00;99923.91;4952255;28;20047;-72
2023/06/30 01:05:42;;;;;;;13.18;8.85;;;;;;;19.83;100.00;99931.97;4953984;28;20050;-73
2023/06/30 01:09:01;;;;;;;11.82;7.95;;;;;;;19.82;100.00;99913.34;4959193;28;20051;-72
2023/06/30 01:11:28;;;;;;;11.75;8.48;;;;;;;19.79;100.00;99914.47;4912519;29;20507;-72
2023/06/30 01:13:56;;;;;;;13.10;7.88;;;;;;;19.80;100.00;99920.69;4899381;29;20593;-72
2023/06/30 01:16:24;;;;;;;10.35;8.07;;;;;;;19.75;100.00;99910.38;4919751;29;20070;-73
2023/06/30 01:18:56;;;;;;;10.68;7.93;;;;;;;19.79;100.00;99919.00;4955520;28;20047;-72
2023/06/30 01:21:23;;;;;;;11.02;8.35;;;;;;;19.77;100.00;99913.75;4951394;28;20053;-72
2023/06/30 01:23:57;;;;;;;11.73;8.48;;;;;;;19.83;100.00;99918.53;4936353;29;20070;-72
2023/06/30 01:26:26;;;;;;;11.57;8.45;;;;;;;19.85;100.00;99918.41;4950809;28;20134;-72
2023/06/30 01:28:54;;;;;;;12.07;8.35;;;;;;;19.85;100.00;99913.88;4920164;28;20654;-72
2023/06/30 01:31:24;;;;;;;10.90;8.07;;;;;;;19.90;100.00;99927.75;4952912;28;20066;-73
2023/06/30 01:33:54;;;;;;;12.55;8.48;;;;;;;19.87;100.00;99925.34;4937793;29;20059;-72
2023/06/30 01:36:28;;;;;;;12.82;8.75;;;;;;;19.83;100.00;99917.72;5025473;28;21104;-73
2023/06/30 01:38:56;;;;;;;10.93;8.45;;;;;;;19.82;100.00;99914.19;4996897;28;20051;-73
2023/06/30 01:41:22;;;;;;;11.57;8.57;;;;;;;19.79;100.00;99909.09;4997922;28;20062;-73
2023/06/30 01:43:50;;;;;;;12.65;8.38;;;;;;;19.77;100.00;99913.75;4999413;28;20133;-73
2023/06/30 01:46:18;;;;;;;11.57;8.00;;;;;;;19.77;100.00;99911.06;4996303;28;20455;-73
2023/06/30 01:48:46;;;;;;;11.05;8.65;;;;;;;19.71;100.00;99892.81;4975500;28;20108;-72
2023/06/30 01:51:14;;;;;;;10.52;7.93;;;;;;;19.83;100.00;99897.03;5008583;28;20149;-72
2023/06/30 01:53:44;;;;;;;12.88;7.72;;;;;;;19.93;100.00;99891.69;5009016;28;20125;-73
2023/06/30 01:56:11;;;;;;;10.30;7.80;;;;;;;19.96;100.00;99877.97;4990836;28;20098;-72
2023/06/30 01:58:40;;;;;;;11.23;7.65;;;;;;;20.00;100.00;99875.81;5010811;28;20050;-73
2023/06/30 02:01:07;;;;;;;12.45;8.00;;;;;;;20.01;100.00;99880.19;4999662;28;20055;-71
2023/06/30 02:03:34;;;;;;;10.88;8.20;;;;;;;20.02;100.00;99876.50;4994834;28;20049;-73
2023/06/30 02:06:02;;;;;;;12.05;8.15;;;;;;;19.96;100.00;99870.75;4993639;28;20038;-73
2023/06/30 02:08:31;;;;;;;10.55;7.80;;;;;;;19.88;100.00;99864.38;4994770;28;20113;-72
2023/06/30 02:10:57;;;;;;;11.95;7.75;;;;;;;19.89;100.00;99864.25;4997779;28;20049;-73
2023/06/30 02:13:24;;;;;;;10.95;7.60;;;;;;;19.90;100.00;99865.94;4997537;28;20108;-73
2023/06/30 02:15:51;;;;;;;10.00;7.55;;;;;;;19.93;100.00;99870.19;5008009;28;20399;-72
2023/06/30 02:18:18;;;;;;;11.38;7.88;;;;;;;19.91;100.00;99877.53;4999823;28;20182;-72
2023/06/30 02:20:45;;;;;;;10.82;7.55;;;;;;;19.92;100.00;99885.44;5010380;28;20081;-73
2023/06/30 02:23:12;;;;;;;9.75;7.30;;;;;;;19.92;100.00;99880.09;4994601;28;20050;-72
2023/06/30 02:25:38;;;;;;;10.65;7.75;;;;;;;20.00;100.00;99886.56;5011933;28;20042;-73
2023/06/30 02:28:05;;;;;;;13.32;7.05;;;;;;;19.91;100.00;99877.53;4990097;28;20046;-72
2023/06/30 02:30:32;;;;;;;8.98;7.00;;;;;;;20.00;100.00;99889.25;4997144;28;20066;-73
2023/06/30 02:33:01;;;;;;;10.10;7.57;;;;;;;19.98;100.00;99888.56;4995552;28;20038;-72
2023/06/30 02:35:29;;;;;;;11.15;7.47;;;;;;;19.97;100.00;99876.97;4997632;28;20125;-73
2023/06/30 02:37:57;;;;;;;10.38;7.18;;;;;;;20.05;100.00;99886.97;4997081;28;20038;-73
2023/06/30 02:40:26;;;;;;;11.50;7.45;;;;;;;20.04;100.00;99878.06;4996342;28;20070;-73
2023/06/30 02:42:56;;;;;;;12.13;7.10;;;;;;;20.11;100.00;99886.41;4990283;28;20114;-73
2023/06/30 02:45:23;;;;;;;12.82;7.53;;;;;;;20.09;100.00;99874.97;4996819;28;20133;-73
2023/06/30 02:47:49;;;;;;;13.30;7.55;;;;;;;20.10;100.00;99871.28;4975584;28;20063;-73
2023/06/30 02:50:17;;;;;;;12.77;7.78;;;;;;;20.09;100.00;99866.91;4982520;28;20120;-71
2023/06/30 02:52:44;;;;;;;11.00;7.63;;;;;;;20.09;100.00;99881.19;4990700;28;20061;-73
2023/06/30 02:55:10;;;;;;;9.70;7.30;;;;;;;20.02;100.00;99881.88;4991515;28;20073;-73
2023/06/30 02:57:37;;;;;;;11.90;7.15;;;;;;;19.92;100.00;99874.72;4985418;28;20042;-72
2023/06/30 03:00:04;;;;;;;11.30;7.57;;;;;;;20.02;100.00;99889.94;4971116;28;20050;-72
2023/06/30 03:02:32;;;;;;;12.68;7.80;;;;;;;19.95;100.00;99879.78;4984335;28;20057;-73
2023/06/30 03:04:59;;;;;;;11.20;7.38;;;;;;;19.91;100.00;99875.69;4977261;28;20034;-73
2023/06/30 03:07:27;;;;;;;10.18;7.65;;;;;;;19.92;100.00;99868.47;4979622;28;20055;-73
2023/06/30 03:09:54;;;;;;;11.40;7.38;;;;;;;19.88;100.00;99865.22;4984921;28;20050;-73
2023/06/30 03:12:22;;;;;;;10.02;7.18;;;;;;;19.90;100.00;99875.84;4990944;28;20051;-73
2023/06/30 03:14:48;;;;;;;9.65;7.70;;;;;;;19.80;100.00;99865.13;4979274;28;20053;-73
2023/06/30 03:17:15;;;;;;;11.10;7.65;;;;;;;19.74;100.00;99860.31;4978521;28;20051;-72
2023/06/30 03:19:42;;;;;;;12.10;7.78;;;;;;;19.65;100.00;99850.44;4983349;28;20122;-73
2023/06/30 03:22:10;;;;;;;11.93;7.78;;;;;;;19.67;100.00;99864.56;4992744;28;20148;-72
2023/06/30 03:24:38;;;;;;;10.95;8.02;;;;;;;19.64;100.00;99867.53;4983554;28;20092;-72
2023/06/30 03:27:05;;;;;;;11.60;8.13;;;;;;;19.55;100.00;99861.16;4979515;28;20113;-73
2023/06/30 03:29:34;;;;;;;10.88;7.75;;;;;;;19.54;100.00;99862.16;4992242;28;20041;-72
2023/06/30 03:32:00;;;;;;;12.65;7.97;;;;;;;19.55;100.00;99868.38;4997388;28;20057;-73
2023/06/30 03:34:27;;;;;;;12.27;8.55;;;;;;;19.48;100.00;99868.06;4981973;28;20068;-72
2023/06/30 03:36:54;;;;;;;13.13;8.57;;;;;;;19.52;100.00;99876.72;4989115;28;20120;-74
2023/06/30 03:39:21;;;;;;;11.95;9.70;;;;;;;19.50;100.00;99874.19;4975668;28;20047;-72
2023/06/30 03:41:49;;;;;;;13.25;8.55;;;;;;;19.48;100.00;99891.41;4986071;28;20502;-73
2023/06/30 03:44:17;;;;;;;12.25;9.23;;;;;;;19.41;100.00;99883.03;4992521;28;20053;-72
2023/06/30 03:46:47;;;;;;;17.95;9.82;;;;;;;19.37;100.00;99892.34;4986205;28;20038;-72
2023/06/30 03:49:14;;;;;;;14.98;9.73;;;;;;;19.40;100.00;99899.28;4978088;28;20046;-72
2023/06/30 03:51:41;;;;;;;15.02;10.35;;;;;;;19.34;100.00;99900.72;4980541;28;20042;-72
2023/06/30 03:54:10;;;;;;;18.75;11.63;;;;;;;19.23;100.00;99924.97;4983152;28;20046;-72
2023/06/30 03:56:36;;;;;;;23.98;12.60;;;;;;;18.69;100.00;99926.25;4976827;28;20528;-71
2023/06/30 03:59:03;;;;;;;23.30;13.05;;;;;;;18.20;100.00;99918.91;4979483;28;20078;-71
2023/06/30 04:01:33;;;;;;;22.92;13.13;;;;;;;17.83;100.00;99905.13;4976466;28;20502;-75
2023/06/30 04:04:01;;;;;;;25.52;13.43;;;;;;;17.80;100.00;99903.53;4977126;28;20070;-72
2023/06/30 04:06:30;;;;;;;23.70;14.50;;;;;;;17.74;100.00;99901.41;4968301;28;20038;-71
2023/06/30 04:08:57;;;;;;;23.15;14.85;;;;;;;17.64;100.00;99903.13;4975785;28;20133;-72
2023/06/30 04:11:24;;;;;;;23.70;15.85;;;;;;;17.57;100.00;99896.59;4976865;28;20543;-72
2023/06/30 04:13:51;;;;;;;25.50;17.17;;;;;;;17.60;100.00;99908.88;4991697;28;20066;-72
2023/06/30 04:16:18;;;;;;;26.90;18.00;;;;;;;17.55;100.00;99903.88;4975434;28;20126;-72
2023/06/30 04:18:45;;;;;;;24.60;16.08;;;;;;;17.44;100.00;99893.25;4978376;28;20130;-73
2023/06/30 04:21:12;;;;;;;25.83;17.10;;;;;;;17.45;100.00;99892.25;4993321;28;20050;-72
2023/06/30 04:23:41;;;;;;;29.50;18.13;;;;;;;17.37;100.00;99886.69;4981643;28;20078;-71
2023/06/30 04:26:08;;;;;;;34.15;20.58;;;;;;;17.31;100.00;99876.50;4973988;28;20569;-71
2023/06/30 04:28:35;;;;;;;35.60;21.63;;;;;;;17.30;100.00;99880.16;4973132;28;20055;-72
2023/06/30 04:31:04;;;;;;;37.20;22.92;;;;;;;17.25;100.00;99856.44;4978759;28;20054;-73
2023/06/30 04:33:34;;;;;;;35.67;22.13;;;;;;;17.31;100.00;99863.13;4979446;28;20120;-72
2023/06/30 04:36:01;;;;;;;40.35;23.77;;;;;;;17.39;100.00;99868.66;4979840;28;20071;-72
2023/06/30 04:38:27;;;;;;;41.20;25.00;;;;;;;17.42;100.00;99863.06;4985521;28;20067;-72
2023/06/30 04:40:55;;;;;;;41.97;25.23;;;;;;;17.45;100.00;99868.16;4984314;28;20043;-72
2023/06/30 04:43:22;;;;;;;38.88;25.33;;;;;;;17.53;100.00;99868.34;4979410;28;20141;-72
2023/06/30 04:45:48;;;;;;;47.38;28.30;;;;;;;17.64;100.00;99879.03;4977898;28;20057;-73
2023/06/30 04:48:15;;;;;;;44.42;26.15;;;;;;;17.72;100.00;99876.59;4983069;28;20043;-74
2023/06/30 04:50:42;;;;;;;44.67;27.70;;;;;;;17.81;100.00;99870.44;4990423;28;20051;-74
2023/06/30 04:53:10;;;;;;;46.15;28.50;;;;;;;17.84;100.00;99869.31;4998916;28;20049;-73
2023/06/30 04:55:37;;;;;;;47.85;27.90;;;;;;;17.75;100.00;99870.97;4988175;28;20589;-73
2023/06/30 04:58:04;;;;;;;40.83;26.33;;;;;;;17.75;100.00;99876.31;4990143;28;20114;-73
2023/06/30 05:00:30;;;;;;;44.05;29.20;;;;;;;17.93;100.00;99890.00;4984742;28;20051;-74
2023/06/30 05:02:58;;;;;;;39.53;27.00;;;;;;;17.95;100.00;99884.47;4979070;28;20046;-74
2023/06/30 05:05:25;;;;;;;42.38;25.08;;;;;;;18.03;100.00;99890.03;4981105;28;20070;-74
2023/06/30 05:07:53;;;;;;;38.78;25.60;;;;;;;18.14;100.00;99882.75;4998326;28;20079;-73
2023/06/30 05:10:20;;;;;;;41.10;25.85;;;;;;;18.18;100.00;99857.41;4992572;28;20053;-74
2023/06/30 05:12:48;;;;;;;37.47;24.73;;;;;;;18.36;100.00;99879.06;4986407;28;20046;-73
2023/06/30 05:15:17;;;;;;;45.07;25.67;;;;;;;18.31;100.00;99880.44;4979989;28;20109;-76
2023/06/30 05:17:45;;;;;;;39.08;24.80;;;;;;;18.23;100.00;99881.97;4979302;28;20053;-75
2023/06/30 05:20:12;;;;;;;39.55;26.05;;;;;;;18.17;100.00;99873.63;4982039;28;20137;-75
2023/06/30 05:22:39;;;;;;;42.20;25.05;;;;;;;18.20;100.00;99882.25;4978352;28;20089;-74
2023/06/30 05:25:06;;;;;;;38.40;24.63;;;;;;;18.09;100.00;99874.28;5002681;28;20102;-75
2023/06/30 05:27:33;;;;;;;34.45;23.45;;;;;;;18.13;100.00;99869.50;5002783;28;20162;-74
2023/06/30 05:30:09;;;;;;;37.65;24.33;;;;;;;18.26;100.00;99880.03;4972973;28;20053;-75
2023/06/30 05:32:35;;;;;;;41.22;25.23;;;;;;;18.39;100.00;99876.13;4983709;28;20058;-75
2023/06/30 05:35:02;;;;;;;34.05;23.77;;;;;;;18.47;100.00;99872.78;4979069;28;20065;-74
2023/06/30 05:37:30;;;;;;;35.72;23.75;;;;;;;18.48;100.00;99871.78;4980275;28;20101;-74
2023/06/30 05:39:58;;;;;;;33.75;23.02;;;;;;;18.58;100.00;99878.91;4996597;28;20125;-74
2023/06/30 05:42:25;;;;;;;35.25;22.77;;;;;;;18.66;100.00;99877.38;4997867;28;20047;-73
2023/06/30 05:44:51;;;;;;;34.78;22.45;;;;;;;18.50;100.00;99853.72;4963039;28;20392;-75
2023/06/30 05:47:20;;;;;;;32.47;21.80;;;;;;;18.49;100.00;99855.56;4984523;28;20050;-74
2023/06/30 05:49:47;;;;;;;35.40;22.15;;;;;;;18.69;100.00;99893.22;4976724;28;20066;-74
2023/06/30 05:52:14;;;;;;;38.50;24.23;;;;;;;18.72;100.00;99884.91;4990422;28;20057;-74
2023/06/30 05:54:41;;;;;;;34.30;22.58;;;;;;;18.75;100.00;99873.88;4980400;28;20063;-74
2023/06/30 05:57:10;;;;;;;35.05;23.00;;;;;;;18.93;100.00;99891.88;4975903;28;20427;-74
2023/06/30 05:59:37;;;;;;;37.03;24.00;;;;;;;19.04;100.00;99885.56;4990010;28;20078;-74
2023/06/30 06:02:04;;;;;;;33.63;22.10;;;;;;;19.09;100.00;99879.75;4975210;28;20046;-75
2023/06/30 06:04:31;;;;;;;31.20;21.40;;;;;;;19.10;100.00;99887.66;4976981;28;20182;-74
2023/06/30 06:07:02;;;;;;;33.80;22.08;;;;;;;19.19;100.00;99892.22;4976058;28;20058;-73
2023/06/30 06:09:29;;;;;;;35.33;21.90;;;;;;;19.20;100.00;99895.75;4983077;28;20113;-73
2023/06/30 06:11:56;;;;;;;32.55;22.05;;;;;;;19.13;100.00;99891.91;4981247;28;20154;-76
2023/06/30 06:14:23;;;;;;;38.47;22.00;;;;;;;19.19;100.00;99905.66;4981787;28;20054;-75
2023/06/30 06:16:49;;;;;;;33.28;22.55;;;;;;;19.23;100.00;99909.72;4975175;28;20051;-77
2023/06/30 06:19:17;;;;;;;33.13;21.77;;;;;;;19.32;100.00;99901.84;4987552;28;20067;-76
2023/06/30 06:21:47;;;;;;;36.53;23.33;;;;;;;19.35;100.00;99898.88;4987715;28;20053;-75
2023/06/30 06:24:16;;;;;;;36.77;23.77;;;;;;;19.48;100.00;99912.88;4992818;28;20046;-74
2023/06/30 06:26:43;;;;;;;38.47;24.80;;;;;;;19.53;100.00;99913.31;4978474;28;20478;-75
2023/06/30 06:29:14;;;;;;;42.92;26.42;;;;;;;19.56;100.00;99921.94;4995980;28;20443;-75
2023/06/30 06:31:44;;;;;;;37.25;24.27;;;;;;;19.64;100.00;99925.78;4987600;28;20073;-75
2023/06/30 06:34:11;;;;;;;39.10;27.05;;;;;;;19.70;100.00;99926.03;4980961;28;20601;-75
2023/06/30 06:36:38;;;;;;;43.25;27.45;;;;;;;19.64;100.00;99909.66;4989735;28;20085;-74
2023/06/30 06:39:04;;;;;;;44.95;27.92;;;;;;;19.72;100.00;99907.09;4976500;28;20061;-75
2023/06/30 06:41:32;;;;;;;39.97;25.92;;;;;;;19.72;100.00;99899.88;4982905;28;20050;-75
2023/06/30 06:43:58;;;;;;;42.60;26.50;;;;;;;19.89;100.00;99915.28;5004310;28;20419;-76
2023/06/30 06:46:25;;;;;;;38.22;27.38;;;;;;;20.04;100.00;99921.06;4976934;28;20057;-74
2023/06/30 06:48:56;;;;;;;37.47;24.38;;;;;;;20.14;100.00;99911.16;4983331;28;20046;-74
2023/06/30 06:51:23;;;;;;;36.65;24.70;;;;;;;20.30;100.00;99918.63;4982597;28;20051;-76
2023/06/30 06:53:53;;;;;;;35.63;24.27;;;;;;;20.33;100.00;99916.47;4980157;28;20053;-75
2023/06/30 06:56:20;;;;;;;34.63;22.92;;;;;;;20.39;100.00;99923.16;4983461;28;20052;-74
2023/06/30 06:58:50;;;;;;;36.70;23.83;;;;;;;20.47;100.00;99912.50;4983127;28;20066;-74
2023/06/30 07:01:16;;;;;;;43.83;26.95;;;;;;;20.67;100.00;99919.50;4980452;28;20050;-75
2023/06/30 07:03:43;;;;;;;41.33;26.40;;;;;;;20.73;100.00;99923.47;4984330;28;20050;-73
2023/06/30 07:06:10;;;;;;;44.25;26.88;;;;;;;20.79;100.00;99922.84;4981082;28;20046;-74
2023/06/30 07:08:39;;;;;;;44.63;26.77;;;;;;;20.91;100.00;99926.22;4981865;28;20537;-75
2023/06/30 07:11:06;;;;;;;39.85;25.75;;;;;;;20.89;100.00;99929.06;5001509;28;20113;-74
2023/06/30 07:13:38;;;;;;;46.92;27.30;;;;;;;20.92;100.00;99927.91;4972651;28;20128;-74
2023/06/30 07:16:10;;;;;;;37.95;25.30;;;;;;;20.96;100.00;99921.22;4977831;28;20089;-75
2023/06/30 07:18:37;;;;;;;33.42;22.33;;;;;;;21.09;100.00;99935.19;4974001;28;20051;-76
2023/06/30 07:21:04;;;;;;;21.20;14.93;;;;;;;21.03;100.00;99933.09;4982189;28;20523;-75
2023/06/30 07:23:31;;;;;;;20.35;13.55;;;;;;;21.00;100.00;99936.06;4995733;28;20046;-74
2023/06/30 07:25:59;;;;;;;15.52;9.77;;;;;;;21.07;100.00;99928.25;4963073;28;20047;-73
2023/06/30 07:28:26;;;;;;;12.23;8.43;;;;;;;21.16;100.00;99940.81;4982723;28;20082;-75
2023/06/30 07:30:53;;;;;;;11.88;8.20;;;;;;;21.14;100.00;99932.88;4994763;28;20046;-75
2023/06/30 07:33:20;;;;;;;10.07;6.72;;;;;;;21.26;100.00;99949.69;4992600;28;20046;-73
2023/06/30 07:35:47;;;;;;;10.05;6.93;;;;;;;21.16;100.00;99941.66;4986530;28;20054;-74
2023/06/30 07:38:16;;;;;;;8.32;6.00;;;;;;;21.02;100.00;99939.47;4989772;28;20047;-74
2023/06/30 07:40:44;;;;;;;8.82;5.20;;;;;;;20.92;100.00;99949.44;5008084;28;20459;-73
2023/06/30 07:43:22;;;;;;;8.48;4.88;;;;;;;20.75;100.00;99950.22;4990812;28;20046;-74
2023/06/30 07:45:49;;;;;;;7.38;4.90;;;;;;;20.64;100.00;99952.09;4983806;28;20200;-74
2023/06/30 07:48:19;;;;;;;5.80;3.97;;;;;;;20.45;100.00;99941.41;4972221;28;20042;-74
2023/06/30 07:50:48;;;;;;;5.32;3.55;;;;;;;20.47;100.00;99957.38;4974942;28;20042;-74
2023/06/30 07:53:33;;;;;;;4.45;3.25;;;;;;;20.32;100.00;99954.25;4977420;28;20638;-74
2023/06/30 07:56:00;;;;;;;4.68;2.90;;;;;;;20.20;100.00;99958.13;4977639;28;20058;-73
2023/06/30 07:58:28;;;;;;;4.35;3.28;;;;;;;20.21;100.00;99957.13;4983556;28;20047;-73
2023/06/30 08:00:56;;;;;;;3.90;3.10;;;;;;;20.30;100.00;99956.28;4981012;28;20058;-73
2023/06/30 08:03:23;;;;;;;3.95;3.13;;;;;;;20.36;100.00;99963.78;4986644;28;20050;-72
2023/06/30 08:05:50;;;;;;;4.07;3.10;;;;;;;20.39;100.00;99960.81;4981548;28;20055;-74
2023/06/30 08:08:19;;;;;;;2.53;2.20;;;;;;;20.30;100.00;99969.72;4984058;28;20049;-72
2023/06/30 08:10:46;;;;;;;3.53;1.98;;;;;;;20.19;100.00;99961.78;4976265;28;20050;-73
2023/06/30 08:13:13;;;;;;;2.42;2.00;;;;;;;20.13;100.00;99959.69;4981564;28;20052;-73
2023/06/30 08:15:41;;;;;;;2.45;2.00;;;;;;;20.18;100.00;99965.47;4978557;28;20102;-72
2023/06/30 08:18:11;;;;;;;2.00;1.75;;;;;;;20.26;100.00;99961.09;4985088;28;20117;-72
2023/06/30 08:20:38;;;;;;;2.83;1.88;;;;;;;20.28;100.00;99963.63;4991717;28;20108;-72
2023/06/30 08:23:05;;;;;;;3.42;2.10;;;;;;;20.34;100.00;99971.09;4984002;28;20670;-73
2023/06/30 08:25:32;;;;;;;3.25;1.58;;;;;;;20.31;100.00;99969.56;4983518;28;20144;-73
2023/06/30 08:27:59;;;;;;;2.95;1.90;;;;;;;20.25;100.00;99962.09;4984738;28;20059;-72
2023/06/30 08:30:26;;;;;;;3.08;2.20;;;;;;;20.11;100.00;99967.91;4983335;28;20502;-73
2023/06/30 08:32:54;;;;;;;5.00;2.15;;;;;;;20.03;100.00;99962.38;4977256;28;20595;-72
2023/06/30 08:35:24;;;;;;;2.50;2.30;;;;;;;19.90;100.00;99978.81;4978570;28;20062;-73
2023/06/30 08:37:51;;;;;;;3.65;2.20;;;;;;;19.80;100.00;99987.84;4976961;28;20050;-72
2023/06/30 08:40:29;;;;;;;3.58;2.30;;;;;;;19.69;100.00;99980.75;4980229;28;20130;-73
2023/06/30 08:42:59;;;;;;;2.75;2.33;;;;;;;19.65;100.00;99987.44;4986200;28;20047;-72
2023/06/30 08:45:28;;;;;;;3.90;2.20;;;;;;;19.60;100.00;99976.25;4981245;28;20097;-74
2023/06/30 08:48:01;;;;;;;2.30;1.95;;;;;;;19.65;100.00;99979.38;4984936;28;20110;-74
2023/06/30 08:50:29;;;;;;;2.40;1.98;;;;;;;19.57;100.00;99971.13;4979039;28;20047;-73
2023/06/30 08:52:56;;;;;;;1.70;1.60;;;;;;;19.61;100.00;99986.84;4996781;28;20047;-73
2023/06/30 08:55:24;;;;;;;2.47;1.45;;;;;;;19.62;100.00;99990.38;4984786;28;20046;-73
2023/06/30 08:57:57;;;;;;;3.20;1.50;;;;;;;19.57;100.00;99982.72;4979867;28;20129;-72
2023/06/30 09:00:32;;;;;;;2.45;1.50;;;;;;;19.56;100.00;99982.88;4980621;28;20042;-73
2023/06/30 09:03:04;;;;;;;2.03;1.40;;;;;;;19.65;100.00;99995.47;4978869;28;20467;-72
2023/06/30 09:05:34;;;;;;;3.58;1.30;;;;;;;19.77;100.00;99999.72;4979043;28;20114;-73
2023/06/30 09:08:07;;;;;;;1.75;1.27;;;;;;;19.77;100.00;99983.59;4992064;28;20043;-73
2023/06/30 09:10:37;;;;;;;1.60;1.33;;;;;;;20.00;100.00;99997.59;4976168;28;20061;-71
2023/06/30 09:13:04;;;;;;;1.45;1.35;;;;;;;20.06;100.00;99991.66;4993559;28;20055;-72
2023/06/30 09:15:32;;;;;;;2.22;1.45;;;;;;;20.23;100.00;99990.94;4983930;28;20145;-72
2023/06/30 09:18:05;;;;;;;1.05;0.93;;;;;;;20.42;100.00;99994.63;4984254;28;20070;-72
2023/06/30 09:20:31;;;;;;;2.05;1.40;;;;;;;20.54;100.00;100004.22;4989298;28;20474;-72
2023/06/30 09:23:02;;;;;;;2.10;1.20;;;;;;;20.62;100.00;100005.19;4982183;28;20427;-72
2023/06/30 09:25:32;;;;;;;2.45;1.13;;;;;;;20.71;100.00;100006.16;4981696;28;20082;-72
2023/06/30 09:28:08;;;;;;;1.20;0.90;;;;;;;20.77;100.00;100000.22;4983175;28;20559;-72
2023/06/30 09:30:36;;;;;;;2.10;1.30;;;;;;;20.82;100.00;99997.06;4992248;28;20122;-73
2023/06/30 09:33:06;;;;;;;3.10;1.30;;;;;;;20.72;100.00;99993.56;4997283;28;20063;-72
2023/06/30 09:35:40;;;;;;;1.70;1.30;;;;;;;20.69;100.00;99991.16;5000626;28;20043;-73
2023/06/30 09:38:15;;;;;;;2.63;1.38;;;;;;;20.70;100.00;99995.56;4989184;28;21088;-72
2023/06/30 09:40:45;;;;;;;2.03;1.30;;;;;;;20.57;100.00;99990.50;4997820;28;20050;-74
2023/06/30 09:43:21;;;;;;;3.85;1.25;;;;;;;20.71;100.00;100003.47;5000424;28;20046;-73
2023/06/30 09:46:05;;;;;;;3.42;1.27;;;;;;;20.78;100.00;100001.06;5000620;28;20061;-72
2023/06/30 09:48:35;;;;;;;1.95;1.20;;;;;;;20.84;100.00;100014.75;4976555;28;20112;-73
2023/06/30 09:51:07;;;;;;;1.88;1.00;;;;;;;20.79;100.00;100013.50;4982266;28;20046;-73
2023/06/30 09:53:38;;;;;;;1.03;0.90;;;;;;;20.73;100.00;100000.66;4997204;28;20117;-72
2023/06/30 09:56:06;;;;;;;3.70;1.15;;;;;;;20.81;100.00;100006.97;4981505;28;20050;-72
2023/06/30 09:58:33;;;;;;;0.98;0.80;;;;;;;20.73;100.00;100003.34;4969956;28;20043;-72
2023/06/30 10:01:00;;;;;;;1.33;1.00;;;;;;;20.71;100.00;100011.56;4998097;28;20589;-71
2023/06/30 10:03:27;;;;;;;1.35;0.90;;;;;;;20.57;100.00;100004.78;4966682;28;20133;-71
2023/06/30 10:05:54;;;;;;;3.45;0.90;;;;;;;20.46;100.00;100006.81;4983668;28;20522;-72
2023/06/30 10:08:22;;;;;;;1.05;0.80;;;;;;;20.25;100.00;100015.00;4980105;28;20050;-72
2023/06/30 10:10:52;;;;;;;1.75;0.85;;;;;;;20.09;100.00;100018.28;4979339;28;20050;-71
2023/06/30 10:13:19;;;;;;;1.52;0.85;;;;;;;19.95;100.00;100027.59;4963762;28;20106;-72
2023/06/30 10:15:47;;;;;;;2.30;0.70;;;;;;;19.81;100.00;100017.28;4978475;28;20050;-73
2023/06/30 10:18:18;;;;;;;0.82;0.70;;;;;;;19.75;100.00;100017.81;4996612;28;20053;-72
2023/06/30 10:20:45;;;;;;;0.98;0.60;;;;;;;19.72;100.00;100030.69;4979822;28;20121;-73
2023/06/30 10:23:20;;;;;;;3.05;0.70;;;;;;;19.65;100.00;100021.50;4987248;28;20054;-72
2023/06/30 10:25:49;;;;;;;1.60;0.80;;;;;;;19.61;100.00;100027.13;4974895;28;20567;-72
2023/06/30 10:28:18;;;;;;;1.10;0.70;;;;;;;19.51;100.00;100018.22;4995529;28;20566;-72
2023/06/30 10:30:51;;;;;;;2.05;0.70;;;;;;;19.61;100.00;100032.50;4984580;28;20046;-71
2023/06/30 10:33:18;;;;;;;;;;;;;;;19.70;100.00;100022.75;4993544;28;20470;-73
2023/06/30 10:35:46;;;;;;;2.25;0.82;;;;;;;19.71;100.00;100020.91;4981120;28;19926;-71
2023/06/30 10:38:13;;;;;;;4.03;0.68;;;;;;;19.82;100.00;100032.41;4982555;28;20109;-73
2023/06/30 10:40:40;;;;;;;0.68;0.60;;;;;;;19.91;100.00;100031.56;4981456;28;20042;-73
2023/06/30 10:43:07;;;;;;;2.50;0.60;;;;;;;19.99;100.00;100038.09;4988572;28;20514;-72
2023/06/30 10:45:54;;;;;;;0.50;0.50;;;;;;;20.11;100.00;100045.88;4984821;28;20054;-71
2023/06/30 10:48:28;;;;;;;0.40;0.40;;;;;;;20.11;100.00;100040.47;4983735;28;20435;-71
2023/06/30 10:50:55;;;;;;;0.70;0.40;;;;;;;20.08;100.00;100050.66;4967924;28;20046;-72
2023/06/30 10:53:22;;;;;;;0.38;0.30;;;;;;;20.13;100.00;100051.09;4988070;28;20050;-72
2023/06/30 10:55:55;;;;;;;1.55;0.55;;;;;;;20.07;100.00;100051.66;4981739;28;20106;-71
2023/06/30 10:58:24;;;;;;;0.98;0.45;;;;;;;20.00;100.00;100048.66;4973630;28;20057;-73
2023/06/30 11:01:04;;;;;;;1.15;0.50;;;;;;;19.90;100.00;100039.75;4996738;28;20046;-73
2023/06/30 11:03:56;;;;;;;2.45;0.68;;;;;;;19.82;100.00;100051.22;4970408;28;20050;-72
2023/06/30 11:06:25;;;;;;;0.70;0.70;;;;;;;19.66;100.00;100050.91;4996702;28;20042;-73
2023/06/30 11:09:09;;;;;;;0.50;0.50;;;;;;;19.40;100.00;100052.34;4978041;28;20054;-71
2023/06/30 11:11:49;;;;;;;2.38;0.70;;;;;;;19.33;100.00;100037.78;4989636;28;20510;-72
2023/06/30 11:14:31;;;;;;;0.93;0.50;;;;;;;19.32;100.00;100044.13;4983767;28;20046;-72
2023/06/30 11:17:04;;;;;;;0.50;0.50;;;;;;;19.39;100.00;100042.59;4986914;28;20418;-72
2023/06/30 11:19:31;;;;;;;0.50;0.50;;;;;;;19.46;100.00;100044.59;4986525;28;20518;-72
2023/06/30 11:22:23;;;;;;;0.63;0.63;;;;;;;19.53;100.00;100044.91;4980205;28;20130;-73
2023/06/30 11:24:50;;;;;;;0.80;0.80;;;;;;;19.61;100.00;100048.63;4984777;28;20126;-72